Aeroporto :
LOGIN :

Iscrizione | Disclaimer

   EN    FR    IT 

 










Sommario :    VFR   VFR Marginale   IFR   IFR Intensivo   IFR Molto Intensivo
Visibilità : 
Base nubi : 
>= 8 km
>= 3000ft
5 / 8 km
1000 / 3000 ft
1500m / 5 km
500 / 1000 ft
800 / 1500m
200 / 500 ft
< 800m
< 200 ft
Simboli :   Temporali  Nebbia  Neve Forte  Precipitazioni Forti  Vento > 20 kt
SIGMETs :   Varie  Temporali  Ghiacco  Turbolenza  Onda orograficha  Ceneri Vulcaniche






- Altitudine del aeroporto : 7 ft
- Codice IATA : XHE


LFTH - Hyeres

ULTIMO METAR :
  • 200100Z AUTO 30011KT CAVOK 15/02 Q1011 TEMPO 31015G25KT

METARs OBSOLETI :
  • 200030Z AUTO 30008KT CAVOK 15/03 Q1011 TEMPO 31015G25KT
  • 200000Z AUTO 30007KT CAVOK 15/03 Q1012 TEMPO 31015G25KT
  • 192330Z AUTO 30008KT 270V330 CAVOK 14/03 Q1012 TEMPO 31015G25KT
  • 192300Z AUTO 28010KT CAVOK 16/02 Q1012 TEMPO 31015G25KT
  • 192230Z AUTO 28011KT CAVOK 15/03 Q1013 TEMPO 31015G25KT
  • 192200Z AUTO 28016KT CAVOK 16/02 Q1013 TEMPO 31015G25KT
  • 192130Z AUTO 28015KT CAVOK 15/03 Q1013 TEMPO 31015G25KT
  • 192100Z AUTO 28015KT CAVOK 15/04 Q1013 TEMPO 31015G25KT
  • 192030Z AUTO 27020KT CAVOK 16/03 Q1013 TEMPO 31015G25KT

TAF TAF LFTH
Valido dal 19 a 21 ore il 20 a 21 ore UTC


192000Z 1921/2021 31012KT CAVOK
TEMPO 1921/2012 31015G25KT
BECMG 2013/2015 10012KT
BECMG 2017/2019 35008KT



MetMap, La meteo Aeronautica in un colpo d'occhio ! - Copyright ORBIFLY Dicembre 2007 - Disclaimer

ORBIFLY MET'MAP TEAM :

Programmazione e sviluppo : Alexandra Zaïnal
Concezione : Baudouin d'Aumeries
Supporto tecnico e logistico : Manuel Goepfert
Aiuto : Marc-Olivier Méhu
Aiuto per la traduzione : Arnaldo La Scala




FONTI E CREDITI :

   NOAA